createdAt,value
2019-03-23T00:01:57.338Z,31.77
2019-03-23T00:04:25.959Z,28.47
2019-03-23T00:06:54.807Z,31.30
2019-03-23T00:09:23.381Z,30.47
2019-03-23T00:11:52.024Z,31.03
2019-03-23T00:14:20.606Z,31.37
2019-03-23T00:16:49.193Z,30.90
2019-03-23T00:19:17.750Z,31.13
2019-03-23T00:21:46.385Z,30.20
2019-03-23T00:24:14.935Z,29.53
2019-03-23T00:26:43.536Z,29.47
2019-03-23T00:29:12.118Z,30.80
2019-03-23T00:31:40.700Z,28.93
2019-03-23T00:34:09.337Z,28.63
2019-03-23T00:36:41.667Z,30.83
2019-03-23T00:39:08.207Z,31.33
2019-03-23T00:41:36.786Z,28.03
2019-03-23T00:44:07.397Z,25.00
2019-03-23T00:46:35.562Z,25.70
2019-03-23T00:49:04.185Z,25.47
2019-03-23T00:51:32.757Z,25.93
2019-03-23T00:54:01.360Z,27.60
2019-03-23T00:56:30.029Z,27.83
2019-03-23T00:58:58.646Z,26.70
2019-03-23T01:01:27.222Z,27.00
2019-03-23T01:03:55.786Z,25.17
2019-03-23T01:06:24.347Z,30.60
2019-03-23T01:08:52.960Z,27.80
2019-03-23T01:11:21.580Z,28.17
2019-03-23T01:13:50.148Z,29.87
2019-03-23T01:16:18.742Z,31.70
2019-03-23T01:18:47.336Z,29.47
2019-03-23T01:21:15.942Z,29.03
2019-03-23T01:23:44.519Z,31.13
2019-03-23T01:26:13.128Z,30.20
2019-03-23T01:28:41.785Z,32.43
2019-03-23T01:31:10.344Z,31.37
2019-03-23T01:33:38.939Z,31.87
2019-03-23T01:36:07.526Z,31.97
2019-03-23T01:38:36.094Z,34.13
2019-03-23T01:41:04.837Z,32.27
2019-03-23T01:43:33.410Z,32.53
2019-03-23T01:46:02.047Z,34.70
2019-03-23T01:48:30.646Z,35.13
2019-03-23T01:50:59.194Z,34.47
2019-03-23T01:53:27.864Z,36.07
2019-03-23T01:55:56.523Z,33.53
2019-03-23T01:58:25.087Z,43.63
2019-03-23T02:00:53.743Z,37.07
2019-03-23T02:03:22.366Z,38.23
2019-03-23T02:05:50.922Z,36.10
2019-03-23T02:08:19.516Z,38.17
2019-03-23T02:10:48.065Z,37.43
2019-03-23T02:13:16.665Z,37.00
2019-03-23T02:15:45.242Z,38.03
2019-03-23T02:18:13.800Z,36.20
2019-03-23T02:20:42.476Z,40.97
2019-03-23T02:23:11.033Z,36.40
2019-03-23T02:25:39.604Z,39.60
2019-03-23T02:30:44.093Z,39.40
2019-03-23T02:33:12.648Z,38.60
2019-03-23T02:35:41.318Z,39.17
2019-03-23T02:38:10.256Z,38.17
2019-03-23T02:40:38.865Z,38.47
2019-03-23T02:43:07.453Z,38.53
2019-03-23T02:45:36.024Z,37.93
2019-03-23T02:48:04.680Z,36.37
2019-03-23T02:50:33.283Z,37.73
2019-03-23T02:53:01.871Z,35.47
2019-03-23T02:55:30.453Z,39.50
2019-03-23T02:57:59.054Z,38.43
2019-03-23T03:00:27.776Z,39.03
2019-03-23T03:02:56.508Z,37.87
2019-03-23T03:05:25.073Z,40.17
2019-03-23T03:07:53.618Z,36.57
2019-03-23T03:10:41.121Z,36.73
2019-03-23T03:13:10.068Z,39.97
2019-03-23T03:15:38.731Z,36.73
2019-03-23T03:18:07.863Z,36.47
2019-03-23T03:20:36.731Z,39.27
2019-03-23T03:23:05.431Z,38.83
2019-03-23T03:25:33.963Z,39.03
2019-03-23T03:28:02.593Z,39.67
2019-03-23T03:30:31.226Z,39.17
2019-03-23T03:33:00.072Z,37.50
2019-03-23T03:35:28.706Z,45.98
2019-03-23T03:37:57.512Z,38.83
2019-03-23T03:40:26.163Z,42.17
2019-03-23T03:42:54.743Z,42.70
2019-03-23T03:45:28.066Z,40.67
2019-03-23T03:47:56.675Z,39.57
2019-03-23T03:50:25.347Z,40.57
2019-03-23T03:52:53.907Z,41.00
2019-03-23T03:55:22.580Z,51.10
2019-03-23T03:57:51.170Z,41.60
2019-03-23T04:00:19.881Z,39.70
2019-03-23T04:02:48.794Z,37.63
2019-03-23T04:05:17.415Z,37.30
2019-03-23T04:07:46.565Z,36.33
2019-03-23T04:10:15.586Z,38.50
2019-03-23T04:12:44.143Z,37.83
2019-03-23T04:15:12.984Z,40.93
2019-03-23T04:17:41.651Z,40.43
2019-03-23T04:20:11.836Z,37.53
2019-03-23T04:22:40.618Z,41.17
2019-03-23T04:25:10.721Z,40.97
2019-03-23T04:27:39.275Z,51.23
2019-03-23T04:30:09.942Z,42.50
2019-03-23T04:32:38.608Z,42.33
2019-03-23T04:35:08.334Z,41.20
2019-03-23T04:37:36.894Z,40.47
2019-03-23T04:40:10.658Z,39.50
2019-03-23T04:42:39.228Z,36.80
2019-03-23T04:45:10.338Z,37.93
2019-03-23T04:47:38.895Z,38.47
2019-03-23T04:50:11.466Z,38.13
2019-03-23T04:52:40.038Z,37.77
2019-03-23T04:55:11.600Z,39.03
2019-03-23T04:57:41.015Z,42.63
2019-03-23T05:00:15.564Z,40.50
2019-03-23T05:02:44.275Z,39.00
2019-03-23T05:05:13.303Z,40.27
2019-03-23T05:07:41.952Z,37.93
2019-03-23T05:10:11.450Z,39.37
2019-03-23T05:12:40.045Z,36.63
2019-03-23T05:15:08.841Z,39.00
2019-03-23T05:17:37.490Z,37.93
2019-03-23T05:20:11.059Z,36.87
2019-03-23T05:22:39.602Z,39.07
2019-03-23T05:25:11.317Z,39.40
2019-03-23T05:27:39.893Z,35.80
2019-03-23T05:30:08.704Z,41.33
2019-03-23T05:32:37.338Z,40.60
2019-03-23T05:35:07.070Z,39.40
2019-03-23T05:37:35.992Z,41.87
2019-03-23T05:40:06.730Z,39.13
2019-03-23T05:42:35.751Z,42.17
2019-03-23T05:45:07.935Z,40.93
2019-03-23T05:47:36.507Z,45.53
2019-03-23T05:50:07.090Z,40.57
2019-03-23T05:52:35.682Z,43.27
2019-03-23T05:55:05.580Z,42.17
2019-03-23T05:57:34.482Z,43.87
2019-03-23T06:00:04.594Z,41.80
2019-03-23T06:02:33.162Z,39.30
2019-03-23T06:05:01.749Z,44.93
2019-03-23T06:07:30.675Z,41.20
2019-03-23T06:09:59.228Z,40.87
2019-03-23T06:12:27.905Z,41.77
2019-03-23T06:14:56.450Z,40.67
2019-03-23T06:17:25.050Z,41.67
2019-03-23T06:19:53.682Z,40.17
2019-03-23T06:22:22.283Z,41.07
2019-03-23T06:24:50.869Z,38.93
2019-03-23T06:27:19.432Z,40.53
2019-03-23T06:29:48.002Z,38.30
2019-03-23T06:32:16.582Z,40.53
2019-03-23T06:34:45.159Z,44.17
2019-03-23T06:37:14.062Z,42.33
2019-03-23T06:39:42.649Z,41.10
2019-03-23T06:42:11.207Z,54.50
2019-03-23T06:44:39.797Z,41.50
2019-03-23T06:47:08.394Z,42.17
2019-03-23T06:49:37.043Z,45.43
2019-03-23T06:52:05.633Z,45.60
2019-03-23T06:54:34.202Z,39.87
2019-03-23T06:57:02.771Z,45.27
2019-03-23T06:59:31.734Z,44.97
2019-03-23T07:02:00.308Z,45.83
2019-03-23T07:04:28.914Z,43.87
2019-03-23T07:06:57.497Z,45.63
2019-03-23T07:09:26.049Z,46.07
2019-03-23T07:11:54.656Z,43.40
2019-03-23T07:14:23.224Z,43.43
2019-03-23T07:16:51.782Z,42.17
2019-03-23T07:19:20.377Z,42.87
2019-03-23T07:21:49.373Z,40.10
2019-03-23T07:24:17.944Z,39.67
2019-03-23T07:26:46.534Z,37.10
2019-03-23T07:29:15.091Z,37.57
2019-03-23T07:31:43.690Z,38.13
2019-03-23T07:34:12.252Z,36.00
2019-03-23T07:36:40.843Z,39.33
2019-03-23T07:39:09.426Z,37.57
2019-03-23T07:41:37.986Z,40.80
2019-03-23T07:44:06.564Z,36.30
2019-03-23T07:46:35.215Z,36.33
2019-03-23T07:49:03.775Z,33.27
2019-03-23T07:51:32.441Z,26.67
2019-03-23T07:54:02.725Z,26.57
2019-03-23T07:56:31.440Z,24.70
2019-03-23T07:59:00.042Z,23.40
2019-03-23T08:01:28.675Z,20.83
2019-03-23T08:03:57.278Z,19.00
2019-03-23T08:06:25.845Z,20.73
2019-03-23T08:08:54.422Z,20.23
2019-03-23T08:11:23.008Z,16.97
2019-03-23T08:13:51.584Z,16.10
2019-03-23T08:16:20.210Z,15.57
2019-03-23T08:18:48.805Z,14.47
2019-03-23T08:21:17.367Z,13.73
2019-03-23T08:23:45.945Z,14.37
2019-03-23T08:26:14.550Z,13.27
2019-03-23T08:28:43.107Z,11.70
2019-03-23T08:31:12.053Z,11.30
2019-03-23T08:33:40.626Z,12.30
2019-03-23T08:36:09.218Z,11.70
2019-03-23T08:38:37.944Z,11.30
2019-03-23T08:41:06.575Z,10.67
2019-03-23T08:43:35.162Z,10.50
2019-03-23T08:46:03.749Z,10.17
2019-03-23T08:48:32.337Z,10.33
2019-03-23T08:51:00.910Z,10.37
2019-03-23T08:53:29.483Z,9.80
2019-03-23T08:55:58.057Z,10.03
2019-03-23T08:58:28.209Z,17.23
2019-03-23T09:00:58.306Z,9.93
2019-03-23T09:03:26.881Z,9.70
2019-03-23T09:05:55.802Z,10.47
2019-03-23T09:08:24.364Z,10.23
2019-03-23T09:10:52.957Z,9.90
2019-03-23T09:13:21.595Z,9.10
2019-03-23T09:15:50.331Z,9.83
2019-03-23T09:18:18.896Z,9.73
2019-03-23T09:20:47.448Z,8.80
2019-03-23T09:23:16.050Z,8.70
2019-03-23T09:25:45.664Z,9.07
2019-03-23T09:28:14.499Z,11.03
2019-03-23T09:30:43.086Z,10.03
2019-03-23T09:33:11.735Z,9.30
2019-03-23T09:35:40.622Z,9.30
2019-03-23T09:38:09.199Z,9.37
2019-03-23T09:40:37.762Z,8.77
2019-03-23T09:43:06.265Z,9.40
2019-03-23T09:45:34.871Z,9.13
2019-03-23T09:48:03.428Z,8.90
2019-03-23T09:50:32.150Z,9.00
2019-03-23T09:53:01.011Z,9.40
2019-03-23T09:55:29.905Z,8.53
2019-03-23T09:57:58.482Z,8.20
2019-03-23T10:00:27.130Z,8.60
2019-03-23T10:02:55.707Z,8.10
2019-03-23T10:05:24.301Z,7.50
2019-03-23T10:07:52.847Z,7.43
2019-03-23T10:10:22.220Z,7.57
2019-03-23T10:12:51.877Z,6.77
2019-03-23T10:15:20.508Z,6.90
2019-03-23T10:17:49.413Z,7.83
2019-03-23T10:20:18.042Z,8.93
2019-03-23T10:22:46.620Z,8.43
2019-03-23T10:25:15.230Z,8.27
2019-03-23T10:27:43.799Z,8.90
2019-03-23T10:30:12.649Z,8.53
2019-03-23T10:32:41.219Z,8.57
2019-03-23T10:35:10.212Z,8.47
2019-03-23T10:37:39.203Z,8.30
2019-03-23T10:40:10.170Z,8.73
2019-03-23T10:42:38.830Z,8.43
2019-03-23T10:45:08.541Z,7.87
2019-03-23T10:47:37.623Z,7.83
2019-03-23T10:50:07.442Z,7.90
2019-03-23T10:52:36.029Z,7.97
2019-03-23T10:55:06.999Z,7.40
2019-03-23T10:57:35.950Z,7.17
2019-03-23T11:00:12.362Z,6.40
2019-03-23T11:02:40.935Z,6.37
2019-03-23T11:05:09.850Z,6.30
2019-03-23T11:07:38.494Z,6.17
2019-03-23T11:10:09.905Z,5.47
2019-03-23T11:12:38.555Z,5.43
2019-03-23T11:15:08.373Z,5.70
2019-03-23T11:17:37.044Z,5.50
2019-03-23T11:20:07.859Z,5.33
2019-03-23T11:22:36.715Z,5.93
2019-03-23T11:25:07.849Z,6.87
2019-03-23T11:27:36.591Z,5.93
2019-03-23T11:30:07.802Z,6.90
2019-03-23T11:32:36.373Z,6.33
2019-03-23T11:35:08.034Z,6.07
2019-03-23T11:37:36.958Z,6.40
2019-03-23T11:40:08.423Z,7.30
2019-03-23T11:42:37.066Z,7.53
2019-03-23T11:45:07.789Z,7.00
2019-03-23T11:47:36.438Z,6.50
2019-03-23T11:50:06.025Z,7.13
2019-03-23T11:52:34.694Z,7.83
2019-03-23T11:55:03.691Z,6.10
2019-03-23T11:57:32.558Z,7.33
2019-03-23T12:00:01.131Z,7.30
2019-03-23T12:02:30.010Z,6.90
2019-03-23T12:04:58.681Z,7.30
2019-03-23T12:07:27.236Z,6.90
2019-03-23T12:09:56.120Z,7.50
2019-03-23T12:12:24.697Z,6.97
2019-03-23T12:14:53.268Z,6.55
2019-03-23T12:17:21.842Z,5.87
2019-03-23T12:19:50.418Z,5.43
2019-03-23T12:22:18.974Z,6.33
2019-03-23T12:24:47.558Z,6.10
2019-03-23T12:27:16.190Z,6.40
2019-03-23T12:29:44.708Z,6.17
2019-03-23T12:32:13.286Z,6.57
2019-03-23T12:34:41.927Z,5.93
2019-03-23T12:37:10.518Z,6.40
2019-03-23T12:39:39.071Z,6.53
2019-03-23T12:42:07.646Z,7.07
2019-03-23T12:44:36.145Z,6.03
2019-03-23T12:47:04.695Z,7.07
2019-03-23T12:49:33.286Z,7.70
2019-03-23T12:52:01.866Z,6.93
2019-03-23T12:54:30.443Z,7.73
2019-03-23T12:56:59.021Z,6.40
2019-03-23T12:59:27.691Z,6.87
2019-03-23T13:01:56.610Z,7.60
2019-03-23T13:04:25.202Z,7.40
2019-03-23T13:06:53.888Z,6.33
2019-03-23T13:09:22.434Z,7.10
2019-03-23T13:11:51.370Z,6.90
2019-03-23T13:14:19.914Z,6.97
2019-03-23T13:16:48.432Z,7.17
2019-03-23T13:19:16.977Z,6.60
2019-03-23T13:21:45.502Z,7.07
2019-03-23T13:24:14.062Z,7.07
2019-03-23T13:26:42.960Z,6.77
2019-03-23T13:29:11.529Z,6.57
2019-03-23T13:31:40.122Z,5.43
2019-03-23T13:34:08.675Z,5.83
2019-03-23T13:36:37.373Z,5.80
2019-03-23T13:39:07.052Z,6.00
2019-03-23T13:41:41.305Z,6.17
2019-03-23T13:44:05.845Z,5.80
2019-03-23T13:46:34.398Z,6.50
2019-03-23T13:49:02.998Z,5.43
2019-03-23T13:51:31.857Z,7.40
2019-03-23T13:54:00.487Z,6.30
2019-03-23T13:56:29.085Z,6.97
2019-03-23T13:58:57.662Z,7.33
2019-03-23T14:01:26.227Z,7.20
2019-03-23T14:03:54.807Z,6.90
2019-03-23T14:06:23.370Z,6.30
2019-03-23T14:08:51.947Z,7.47
2019-03-23T14:11:20.534Z,6.73
2019-03-23T14:13:49.096Z,6.80
2019-03-23T14:16:17.690Z,7.23
2019-03-23T14:18:46.243Z,7.17
2019-03-23T14:21:14.818Z,8.00
2019-03-23T14:23:43.389Z,8.10
2019-03-23T14:26:11.963Z,8.10
2019-03-23T14:28:40.538Z,7.57
2019-03-23T14:31:09.108Z,8.43
2019-03-23T14:33:37.678Z,9.33
2019-03-23T14:36:06.252Z,9.60
2019-03-23T14:38:34.822Z,9.27
2019-03-23T14:41:03.451Z,10.50
2019-03-23T14:43:32.451Z,10.67
2019-03-23T14:46:01.073Z,10.77
2019-03-23T14:48:29.677Z,9.13
2019-03-23T14:50:58.254Z,9.67
2019-03-23T14:53:26.815Z,10.13
2019-03-23T14:55:55.420Z,10.17
2019-03-23T14:58:23.991Z,10.70
2019-03-23T15:00:52.549Z,10.37
2019-03-23T15:03:21.145Z,10.33
2019-03-23T15:05:49.780Z,9.57
2019-03-23T15:08:18.392Z,10.47
2019-03-23T15:10:46.966Z,17.37
2019-03-23T15:13:15.522Z,20.90
2019-03-23T15:15:44.116Z,10.47
2019-03-23T15:18:12.675Z,11.47
2019-03-23T15:20:41.324Z,9.97
2019-03-23T15:23:10.266Z,9.17
2019-03-23T15:25:39.582Z,9.47
2019-03-23T15:28:08.213Z,8.07
2019-03-23T15:30:36.776Z,9.60
2019-03-23T15:33:05.392Z,12.00
2019-03-23T15:35:33.939Z,11.20
2019-03-23T15:38:02.550Z,12.13
2019-03-23T15:40:31.462Z,11.70
2019-03-23T15:43:00.342Z,13.47
2019-03-23T15:45:28.926Z,16.67
2019-03-23T15:47:57.504Z,19.03
2019-03-23T15:50:26.221Z,21.00
2019-03-23T15:52:54.821Z,23.70
2019-03-23T15:55:23.378Z,25.27
2019-03-23T15:57:51.993Z,29.10
2019-03-23T16:00:20.638Z,32.83
2019-03-23T16:02:49.199Z,39.23
2019-03-23T16:05:17.801Z,34.97
2019-03-23T16:07:46.371Z,34.57
2019-03-23T16:10:15.287Z,35.07
2019-03-23T16:12:43.877Z,36.17
2019-03-23T16:15:13.191Z,34.70
2019-03-23T16:17:41.778Z,32.77
2019-03-23T16:20:11.804Z,37.10
2019-03-23T16:22:40.430Z,34.57
2019-03-23T16:25:10.274Z,35.27
2019-03-23T16:27:38.853Z,36.37
2019-03-23T16:30:10.054Z,35.70
2019-03-23T16:32:38.740Z,38.20
2019-03-23T16:35:08.526Z,49.57
2019-03-23T16:37:37.188Z,31.70
2019-03-23T16:40:08.478Z,33.23
2019-03-23T16:42:44.559Z,30.67
2019-03-23T16:45:09.485Z,31.80
2019-03-23T16:47:38.495Z,31.07
2019-03-23T16:50:08.436Z,29.80
2019-03-23T16:52:38.254Z,29.20
2019-03-23T16:55:08.172Z,26.87
2019-03-23T16:57:36.754Z,30.97
2019-03-23T17:00:11.330Z,29.60
2019-03-23T17:02:40.278Z,27.67
2019-03-23T17:05:09.125Z,26.93
2019-03-23T17:07:37.689Z,37.67
2019-03-23T17:10:07.774Z,30.80
2019-03-23T17:12:36.424Z,28.17
2019-03-23T17:15:07.634Z,28.90
2019-03-23T17:17:36.485Z,31.60
2019-03-23T17:20:06.110Z,28.47
2019-03-23T17:22:34.945Z,30.17
2019-03-23T17:25:05.574Z,28.47
2019-03-23T17:27:34.143Z,28.67
2019-03-23T17:30:02.881Z,28.53
2019-03-23T17:32:31.477Z,27.63
2019-03-23T17:35:00.425Z,28.10
2019-03-23T17:37:29.368Z,27.70
2019-03-23T17:39:57.937Z,26.17
2019-03-23T17:42:26.822Z,26.93
2019-03-23T17:44:55.406Z,28.63
2019-03-23T17:47:24.052Z,26.77
2019-03-23T17:49:52.686Z,32.17
2019-03-23T17:52:21.285Z,29.70
2019-03-23T17:54:50.142Z,28.17
2019-03-23T17:57:23.074Z,27.30
2019-03-23T17:59:51.679Z,37.42
2019-03-23T18:02:20.618Z,31.83
2019-03-23T18:04:49.218Z,31.57
2019-03-23T18:07:17.771Z,31.60
2019-03-23T18:09:46.349Z,34.23
2019-03-23T18:12:14.993Z,33.67
2019-03-23T18:14:43.566Z,32.43
2019-03-23T18:17:12.281Z,32.80
2019-03-23T18:19:40.949Z,32.47
2019-03-23T18:22:09.599Z,31.50
2019-03-23T18:24:38.249Z,28.93
2019-03-23T18:27:07.085Z,28.63
2019-03-23T18:29:35.649Z,28.23
2019-03-23T18:32:04.327Z,27.47
2019-03-23T18:34:32.883Z,25.93
2019-03-23T18:37:01.554Z,27.23
2019-03-23T18:39:30.221Z,26.97
2019-03-23T18:41:58.858Z,27.97
2019-03-23T18:44:27.522Z,27.60
2019-03-23T18:46:56.167Z,26.93
2019-03-23T18:49:24.730Z,24.33
2019-03-23T18:51:53.341Z,26.17
2019-03-23T18:54:21.898Z,25.70
2019-03-23T18:56:50.477Z,23.90
2019-03-23T18:59:19.089Z,25.07
2019-03-23T19:01:47.763Z,26.47
2019-03-23T19:04:16.341Z,24.27
2019-03-23T19:06:44.914Z,23.50
2019-03-23T19:09:13.475Z,23.63
2019-03-23T19:11:42.078Z,23.63
2019-03-23T19:14:12.335Z,23.67
2019-03-23T19:16:41.372Z,23.47
2019-03-23T19:19:10.005Z,22.80
2019-03-23T19:21:38.574Z,21.87
2019-03-23T19:24:07.187Z,24.63
2019-03-23T19:26:35.750Z,23.80
2019-03-23T19:29:04.578Z,23.13
2019-03-23T19:31:33.173Z,22.43
2019-03-23T19:34:01.732Z,22.20
2019-03-23T19:36:30.472Z,22.67
2019-03-23T19:38:59.455Z,21.80
2019-03-23T19:41:28.023Z,20.63
2019-03-23T19:43:56.925Z,23.83
2019-03-23T19:46:25.502Z,22.50
2019-03-23T19:48:54.144Z,25.17
2019-03-23T19:51:22.726Z,23.23
2019-03-23T19:53:51.305Z,18.93
2019-03-23T19:56:19.891Z,20.20
2019-03-23T19:58:48.486Z,22.13
2019-03-23T20:01:17.042Z,20.67
2019-03-23T20:03:45.656Z,21.87
2019-03-23T20:06:14.208Z,23.40
2019-03-23T20:08:42.786Z,25.10
2019-03-23T20:11:11.429Z,24.80
2019-03-23T20:13:40.074Z,23.33
2019-03-23T20:16:08.743Z,21.73
2019-03-23T20:18:37.322Z,20.47
2019-03-23T20:21:05.896Z,21.70
2019-03-23T20:23:34.766Z,20.47
2019-03-23T20:26:03.394Z,21.10
2019-03-23T20:28:31.960Z,19.27
2019-03-23T20:31:00.558Z,21.93
2019-03-23T20:33:29.393Z,21.13
2019-03-23T20:35:57.990Z,20.33
2019-03-23T20:38:26.601Z,20.50
2019-03-23T20:40:55.154Z,19.40
2019-03-23T20:43:23.762Z,20.30
2019-03-23T20:45:52.315Z,20.33
2019-03-23T20:48:20.899Z,18.50
2019-03-23T20:50:49.917Z,19.70
2019-03-23T20:53:19.648Z,20.27
2019-03-23T20:55:48.593Z,20.50
2019-03-23T20:58:17.252Z,21.60
2019-03-23T21:00:45.826Z,21.07
2019-03-23T21:03:14.393Z,21.33
2019-03-23T21:05:43.319Z,22.57
2019-03-23T21:08:11.884Z,20.17
2019-03-23T21:10:40.462Z,19.17
2019-03-23T21:13:09.138Z,20.40
2019-03-23T21:15:37.741Z,18.63
2019-03-23T21:18:06.377Z,20.37
2019-03-23T21:20:34.950Z,17.23
2019-03-23T21:23:03.874Z,20.30
2019-03-23T21:25:32.495Z,20.17
2019-03-23T21:28:01.070Z,20.60
2019-03-23T21:30:29.641Z,22.10
2019-03-23T21:32:58.550Z,23.33
2019-03-23T21:35:27.125Z,22.93
2019-03-23T21:37:55.793Z,28.63
2019-03-23T21:40:24.343Z,30.40
2019-03-23T21:42:52.938Z,28.37
2019-03-23T21:45:21.491Z,35.77
2019-03-23T21:47:50.115Z,29.03
2019-03-23T21:50:18.790Z,31.10
2019-03-23T21:52:47.367Z,29.73
2019-03-23T21:55:16.022Z,28.80
2019-03-23T21:57:44.660Z,28.13
2019-03-23T22:00:15.344Z,26.33
2019-03-23T22:02:43.959Z,25.63
2019-03-23T22:05:12.951Z,23.40
2019-03-23T22:07:41.506Z,25.50
2019-03-23T22:10:10.536Z,24.23
2019-03-23T22:12:39.093Z,24.10
2019-03-23T22:15:09.621Z,24.83
2019-03-23T22:17:38.193Z,25.17
2019-03-23T22:20:08.511Z,24.50
2019-03-23T22:22:37.155Z,24.40
2019-03-23T22:25:07.258Z,25.10
2019-03-23T22:27:39.771Z,25.27
2019-03-23T22:30:11.018Z,24.93
2019-03-23T22:32:39.571Z,24.50
2019-03-23T22:35:09.098Z,27.40
2019-03-23T22:37:37.681Z,27.22
2019-03-23T22:40:10.753Z,25.67
2019-03-23T22:42:39.355Z,25.63
2019-03-23T22:45:08.758Z,24.87
2019-03-23T22:47:37.322Z,23.40
2019-03-23T22:50:07.268Z,22.63
2019-03-23T22:52:36.026Z,23.77
2019-03-23T22:55:06.440Z,26.73
2019-03-23T22:57:35.102Z,21.97
2019-03-23T23:00:05.391Z,24.80
2019-03-23T23:02:34.062Z,21.10
2019-03-23T23:05:02.634Z,23.20
2019-03-23T23:07:31.235Z,23.43
2019-03-23T23:09:59.814Z,24.90
2019-03-23T23:12:28.392Z,23.73
2019-03-23T23:15:04.176Z,23.80
2019-03-23T23:17:27.567Z,24.57
2019-03-23T23:19:56.122Z,25.20
2019-03-23T23:22:24.793Z,23.20
2019-03-23T23:24:53.442Z,22.97
2019-03-23T23:27:23.031Z,23.87
2019-03-23T23:29:51.646Z,23.53
2019-03-23T23:32:20.255Z,23.37
2019-03-23T23:34:50.884Z,21.93
2019-03-23T23:37:22.022Z,19.80
2019-03-23T23:39:50.678Z,24.30
2019-03-23T23:42:19.376Z,21.00
2019-03-23T23:44:47.995Z,24.67
2019-03-23T23:47:18.229Z,22.30
2019-03-23T23:49:47.237Z,25.17
2019-03-23T23:52:15.789Z,22.33
2019-03-23T23:54:44.385Z,22.17
2019-03-23T23:57:12.984Z,21.10
2019-03-23T23:59:41.563Z,22.87
